sensor_id;sensor_type;location;lat;lon;timestamp;P1;durP1;ratioP1;P2;durP2;ratioP2
44026;SDS011;29696;55.698;37.460;2022-07-23T00:01:03;17.65;;;8.18;;
44026;SDS011;29696;55.698;37.460;2022-07-23T00:03:30;19.15;;;8.57;;
44026;SDS011;29696;55.698;37.460;2022-07-23T00:05:56;23.40;;;8.65;;
44026;SDS011;29696;55.698;37.460;2022-07-23T00:08:22;23.90;;;8.48;;
44026;SDS011;29696;55.698;37.460;2022-07-23T00:10:49;21.08;;;9.32;;
44026;SDS011;29696;55.698;37.460;2022-07-23T00:13:15;25.23;;;8.25;;
44026;SDS011;29696;55.698;37.460;2022-07-23T00:15:42;17.80;;;8.18;;
44026;SDS011;29696;55.698;37.460;2022-07-23T00:18:08;22.45;;;11.43;;
44026;SDS011;29696;55.698;37.460;2022-07-23T00:20:34;19.17;;;8.85;;
44026;SDS011;29696;55.698;37.460;2022-07-23T00:23:01;14.25;;;8.85;;
44026;SDS011;29696;55.698;37.460;2022-07-23T00:25:27;16.58;;;9.82;;
44026;SDS011;29696;55.698;37.460;2022-07-23T00:27:53;23.52;;;8.57;;
44026;SDS011;29696;55.698;37.460;2022-07-23T00:30:20;23.95;;;12.52;;
44026;SDS011;29696;55.698;37.460;2022-07-23T00:32:47;27.30;;;11.05;;
44026;SDS011;29696;55.698;37.460;2022-07-23T00:35:16;28.38;;;10.27;;
44026;SDS011;29696;55.698;37.460;2022-07-23T00:37:45;26.92;;;11.95;;
44026;SDS011;29696;55.698;37.460;2022-07-23T00:40:11;18.10;;;11.23;;
44026;SDS011;29696;55.698;37.460;2022-07-23T00:42:38;19.05;;;8.85;;
44026;SDS011;29696;55.698;37.460;2022-07-23T00:45:05;18.88;;;10.52;;
44026;SDS011;29696;55.698;37.460;2022-07-23T00:47:32;16.95;;;8.43;;
44026;SDS011;29696;55.698;37.460;2022-07-23T00:49:59;20.10;;;9.13;;
44026;SDS011;29696;55.698;37.460;2022-07-23T00:52:25;19.48;;;9.57;;
44026;SDS011;29696;55.698;37.460;2022-07-23T00:54:52;17.35;;;9.75;;
44026;SDS011;29696;55.698;37.460;2022-07-23T00:57:18;16.70;;;9.68;;
44026;SDS011;29696;55.698;37.460;2022-07-23T00:59:44;20.05;;;9.68;;
44026;SDS011;29696;55.698;37.460;2022-07-23T01:02:11;23.88;;;11.50;;
44026;SDS011;29696;55.698;37.460;2022-07-23T01:04:38;21.33;;;9.10;;
44026;SDS011;29696;55.698;37.460;2022-07-23T01:07:04;23.33;;;9.32;;
44026;SDS011;29696;55.698;37.460;2022-07-23T01:09:31;15.32;;;8.55;;
44026;SDS011;29696;55.698;37.460;2022-07-23T01:11:57;19.67;;;10.02;;
44026;SDS011;29696;55.698;37.460;2022-07-23T01:14:25;20.80;;;9.90;;
44026;SDS011;29696;55.698;37.460;2022-07-23T01:16:52;12.52;;;9.10;;
44026;SDS011;29696;55.698;37.460;2022-07-23T01:19:19;14.30;;;8.63;;
44026;SDS011;29696;55.698;37.460;2022-07-23T01:21:46;19.48;;;7.57;;
44026;SDS011;29696;55.698;37.460;2022-07-23T01:24:15;22.08;;;7.32;;
44026;SDS011;29696;55.698;37.460;2022-07-23T01:26:52;16.63;;;8.38;;
44026;SDS011;29696;55.698;37.460;2022-07-23T01:29:18;11.27;;;7.20;;
44026;SDS011;29696;55.698;37.460;2022-07-23T01:31:47;10.25;;;6.95;;
44026;SDS011;29696;55.698;37.460;2022-07-23T01:34:14;14.38;;;6.45;;
44026;SDS011;29696;55.698;37.460;2022-07-23T01:36:40;12.95;;;7.15;;
44026;SDS011;29696;55.698;37.460;2022-07-23T01:39:09;15.15;;;8.40;;
44026;SDS011;29696;55.698;37.460;2022-07-23T01:41:35;11.35;;;6.70;;
44026;SDS011;29696;55.698;37.460;2022-07-23T01:44:02;12.73;;;7.13;;
44026;SDS011;29696;55.698;37.460;2022-07-23T01:46:29;10.90;;;6.60;;
44026;SDS011;29696;55.698;37.460;2022-07-23T01:48:56;15.40;;;6.63;;
44026;SDS011;29696;55.698;37.460;2022-07-23T01:51:58;9.30;;;5.85;;
44026;SDS011;29696;55.698;37.460;2022-07-23T01:54:33;14.10;;;7.32;;
44026;SDS011;29696;55.698;37.460;2022-07-23T01:57:01;19.70;;;7.38;;
44026;SDS011;29696;55.698;37.460;2022-07-23T01:59:29;17.08;;;7.55;;
44026;SDS011;29696;55.698;37.460;2022-07-23T02:01:56;13.25;;;7.20;;
44026;SDS011;29696;55.698;37.460;2022-07-23T02:04:23;12.75;;;7.45;;
44026;SDS011;29696;55.698;37.460;2022-07-23T02:06:51;19.52;;;7.90;;
44026;SDS011;29696;55.698;37.460;2022-07-23T02:09:18;10.65;;;6.57;;
44026;SDS011;29696;55.698;37.460;2022-07-23T02:11:46;12.32;;;8.20;;
44026;SDS011;29696;55.698;37.460;2022-07-23T02:14:13;14.85;;;7.15;;
44026;SDS011;29696;55.698;37.460;2022-07-23T02:16:39;14.23;;;6.70;;
44026;SDS011;29696;55.698;37.460;2022-07-23T02:19:06;12.40;;;7.53;;
44026;SDS011;29696;55.698;37.460;2022-07-23T02:21:32;11.75;;;5.75;;
44026;SDS011;29696;55.698;37.460;2022-07-23T02:23:58;22.73;;;7.97;;
44026;SDS011;29696;55.698;37.460;2022-07-23T02:26:24;13.63;;;7.88;;
44026;SDS011;29696;55.698;37.460;2022-07-23T02:28:53;13.30;;;6.93;;
44026;SDS011;29696;55.698;37.460;2022-07-23T02:31:19;14.48;;;7.50;;
44026;SDS011;29696;55.698;37.460;2022-07-23T02:33:46;14.35;;;7.30;;
44026;SDS011;29696;55.698;37.460;2022-07-23T02:36:14;10.48;;;7.57;;
44026;SDS011;29696;55.698;37.460;2022-07-23T02:38:41;16.73;;;9.70;;
44026;SDS011;29696;55.698;37.460;2022-07-23T02:41:08;15.63;;;6.70;;
44026;SDS011;29696;55.698;37.460;2022-07-23T02:43:34;12.38;;;6.88;;
44026;SDS011;29696;55.698;37.460;2022-07-23T02:46:00;29.83;;;8.40;;
44026;SDS011;29696;55.698;37.460;2022-07-23T02:48:27;17.77;;;7.82;;
44026;SDS011;29696;55.698;37.460;2022-07-23T02:50:53;18.65;;;6.90;;
44026;SDS011;29696;55.698;37.460;2022-07-23T02:53:28;15.65;;;7.97;;
44026;SDS011;29696;55.698;37.460;2022-07-23T02:55:55;23.08;;;6.85;;
44026;SDS011;29696;55.698;37.460;2022-07-23T02:58:21;12.27;;;7.57;;
44026;SDS011;29696;55.698;37.460;2022-07-23T03:00:48;13.85;;;7.07;;
44026;SDS011;29696;55.698;37.460;2022-07-23T03:03:14;11.02;;;6.00;;
44026;SDS011;29696;55.698;37.460;2022-07-23T03:05:59;17.10;;;7.35;;
44026;SDS011;29696;55.698;37.460;2022-07-23T03:08:25;17.75;;;6.53;;
44026;SDS011;29696;55.698;37.460;2022-07-23T03:10:52;14.88;;;6.55;;
44026;SDS011;29696;55.698;37.460;2022-07-23T03:13:19;17.23;;;6.18;;
44026;SDS011;29696;55.698;37.460;2022-07-23T03:15:45;16.27;;;7.00;;
44026;SDS011;29696;55.698;37.460;2022-07-23T03:18:13;21.08;;;7.03;;
44026;SDS011;29696;55.698;37.460;2022-07-23T03:20:39;14.73;;;7.10;;
44026;SDS011;29696;55.698;37.460;2022-07-23T03:23:06;11.18;;;6.03;;
44026;SDS011;29696;55.698;37.460;2022-07-23T03:25:32;24.42;;;7.57;;
44026;SDS011;29696;55.698;37.460;2022-07-23T03:27:59;14.30;;;6.63;;
44026;SDS011;29696;55.698;37.460;2022-07-23T03:30:27;15.95;;;5.60;;
44026;SDS011;29696;55.698;37.460;2022-07-23T03:32:54;10.55;;;4.90;;
44026;SDS011;29696;55.698;37.460;2022-07-23T03:35:20;14.55;;;7.03;;
44026;SDS011;29696;55.698;37.460;2022-07-23T03:40:31;9.07;;;5.05;;
44026;SDS011;29696;55.698;37.460;2022-07-23T03:42:57;9.75;;;5.60;;
44026;SDS011;29696;55.698;37.460;2022-07-23T03:45:23;14.50;;;6.60;;
44026;SDS011;29696;55.698;37.460;2022-07-23T03:47:55;12.60;;;5.38;;
44026;SDS011;29696;55.698;37.460;2022-07-23T03:50:22;13.38;;;6.20;;
44026;SDS011;29696;55.698;37.460;2022-07-23T03:52:49;11.20;;;6.03;;
44026;SDS011;29696;55.698;37.460;2022-07-23T03:55:15;11.57;;;5.78;;
44026;SDS011;29696;55.698;37.460;2022-07-23T03:57:42;13.32;;;5.72;;
44026;SDS011;29696;55.698;37.460;2022-07-23T04:00:09;11.25;;;5.20;;
44026;SDS011;29696;55.698;37.460;2022-07-23T04:02:40;19.02;;;5.30;;
44026;SDS011;29696;55.698;37.460;2022-07-23T04:05:07;11.57;;;5.30;;
44026;SDS011;29696;55.698;37.460;2022-07-23T04:07:34;12.23;;;5.35;;
44026;SDS011;29696;55.698;37.460;2022-07-23T04:10:00;13.02;;;5.32;;
44026;SDS011;29696;55.698;37.460;2022-07-23T04:12:29;17.60;;;5.53;;
44026;SDS011;29696;55.698;37.460;2022-07-23T04:14:55;13.90;;;5.10;;
44026;SDS011;29696;55.698;37.460;2022-07-23T04:17:22;15.20;;;5.80;;
44026;SDS011;29696;55.698;37.460;2022-07-23T04:19:48;18.17;;;4.97;;
44026;SDS011;29696;55.698;37.460;2022-07-23T04:22:18;16.60;;;5.78;;
44026;SDS011;29696;55.698;37.460;2022-07-23T04:24:44;8.27;;;5.18;;
44026;SDS011;29696;55.698;37.460;2022-07-23T04:27:10;10.88;;;6.45;;
44026;SDS011;29696;55.698;37.460;2022-07-23T04:29:37;17.15;;;6.13;;
44026;SDS011;29696;55.698;37.460;2022-07-23T04:32:03;8.85;;;5.68;;
44026;SDS011;29696;55.698;37.460;2022-07-23T04:34:30;14.48;;;5.85;;
44026;SDS011;29696;55.698;37.460;2022-07-23T04:36:58;8.65;;;5.05;;
44026;SDS011;29696;55.698;37.460;2022-07-23T04:39:25;14.60;;;5.18;;
44026;SDS011;29696;55.698;37.460;2022-07-23T04:41:52;8.88;;;5.45;;
44026;SDS011;29696;55.698;37.460;2022-07-23T04:44:19;13.77;;;6.05;;
44026;SDS011;29696;55.698;37.460;2022-07-23T04:46:46;10.90;;;5.15;;
44026;SDS011;29696;55.698;37.460;2022-07-23T04:49:12;7.43;;;4.38;;
44026;SDS011;29696;55.698;37.460;2022-07-23T04:51:39;12.30;;;4.60;;
44026;SDS011;29696;55.698;37.460;2022-07-23T04:54:05;18.83;;;6.00;;
44026;SDS011;29696;55.698;37.460;2022-07-23T04:56:31;9.25;;;4.57;;
44026;SDS011;29696;55.698;37.460;2022-07-23T04:58:58;16.70;;;6.10;;
44026;SDS011;29696;55.698;37.460;2022-07-23T05:01:24;11.60;;;4.95;;
44026;SDS011;29696;55.698;37.460;2022-07-23T05:03:50;10.73;;;5.10;;
44026;SDS011;29696;55.698;37.460;2022-07-23T05:06:17;6.32;;;4.03;;
44026;SDS011;29696;55.698;37.460;2022-07-23T05:08:44;10.68;;;5.00;;
44026;SDS011;29696;55.698;37.460;2022-07-23T05:11:11;10.05;;;5.65;;
44026;SDS011;29696;55.698;37.460;2022-07-23T05:13:37;10.38;;;5.28;;
44026;SDS011;29696;55.698;37.460;2022-07-23T05:16:06;7.70;;;5.28;;
44026;SDS011;29696;55.698;37.460;2022-07-23T05:18:33;5.05;;;4.35;;
44026;SDS011;29696;55.698;37.460;2022-07-23T05:21:00;5.72;;;4.40;;
44026;SDS011;29696;55.698;37.460;2022-07-23T05:23:26;10.20;;;5.43;;
44026;SDS011;29696;55.698;37.460;2022-07-23T05:25:52;7.57;;;5.18;;
44026;SDS011;29696;55.698;37.460;2022-07-23T05:28:19;6.70;;;4.75;;
44026;SDS011;29696;55.698;37.460;2022-07-23T05:30:46;7.57;;;4.75;;
44026;SDS011;29696;55.698;37.460;2022-07-23T05:33:17;4.95;;;4.47;;
44026;SDS011;29696;55.698;37.460;2022-07-23T05:35:45;5.18;;;4.30;;
44026;SDS011;29696;55.698;37.460;2022-07-23T05:38:29;10.50;;;4.63;;
44026;SDS011;29696;55.698;37.460;2022-07-23T05:40:58;7.15;;;4.88;;
44026;SDS011;29696;55.698;37.460;2022-07-23T05:43:25;10.00;;;5.13;;
44026;SDS011;29696;55.698;37.460;2022-07-23T05:45:52;5.05;;;4.53;;
44026;SDS011;29696;55.698;37.460;2022-07-23T05:48:19;6.07;;;4.55;;
44026;SDS011;29696;55.698;37.460;2022-07-23T05:50:57;7.57;;;5.00;;
44026;SDS011;29696;55.698;37.460;2022-07-23T05:53:31;5.45;;;4.82;;
44026;SDS011;29696;55.698;37.460;2022-07-23T05:56:03;13.55;;;5.80;;
44026;SDS011;29696;55.698;37.460;2022-07-23T05:58:31;12.30;;;4.82;;
44026;SDS011;29696;55.698;37.460;2022-07-23T06:00:58;8.50;;;5.95;;
44026;SDS011;29696;55.698;37.460;2022-07-23T06:03:24;6.35;;;4.85;;
44026;SDS011;29696;55.698;37.460;2022-07-23T06:05:50;9.82;;;5.00;;
44026;SDS011;29696;55.698;37.460;2022-07-23T06:08:17;6.25;;;4.60;;
44026;SDS011;29696;55.698;37.460;2022-07-23T06:10:44;10.45;;;6.43;;
44026;SDS011;29696;55.698;37.460;2022-07-23T06:13:10;10.40;;;4.85;;
44026;SDS011;29696;55.698;37.460;2022-07-23T06:15:36;5.22;;;4.72;;
44026;SDS011;29696;55.698;37.460;2022-07-23T06:18:03;5.75;;;4.97;;
44026;SDS011;29696;55.698;37.460;2022-07-23T06:20:29;8.13;;;5.30;;
44026;SDS011;29696;55.698;37.460;2022-07-23T06:22:57;7.57;;;4.45;;
44026;SDS011;29696;55.698;37.460;2022-07-23T06:25:24;8.52;;;5.18;;
44026;SDS011;29696;55.698;37.460;2022-07-23T06:27:50;6.18;;;5.32;;
44026;SDS011;29696;55.698;37.460;2022-07-23T06:30:16;9.10;;;5.18;;
44026;SDS011;29696;55.698;37.460;2022-07-23T06:32:43;6.40;;;5.45;;
44026;SDS011;29696;55.698;37.460;2022-07-23T06:35:09;10.38;;;5.35;;
44026;SDS011;29696;55.698;37.460;2022-07-23T06:37:36;13.15;;;5.28;;
44026;SDS011;29696;55.698;37.460;2022-07-23T06:40:03;5.97;;;5.00;;
44026;SDS011;29696;55.698;37.460;2022-07-23T06:42:29;7.20;;;4.97;;
44026;SDS011;29696;55.698;37.460;2022-07-23T06:44:58;9.27;;;5.28;;
44026;SDS011;29696;55.698;37.460;2022-07-23T06:47:25;6.15;;;5.13;;
44026;SDS011;29696;55.698;37.460;2022-07-23T06:49:51;6.05;;;4.88;;
44026;SDS011;29696;55.698;37.460;2022-07-23T06:52:17;5.88;;;5.28;;
44026;SDS011;29696;55.698;37.460;2022-07-23T06:54:44;7.82;;;5.30;;
44026;SDS011;29696;55.698;37.460;2022-07-23T06:57:10;7.47;;;4.93;;
44026;SDS011;29696;55.698;37.460;2022-07-23T06:59:37;13.27;;;5.60;;
44026;SDS011;29696;55.698;37.460;2022-07-23T07:02:06;6.85;;;5.22;;
44026;SDS011;29696;55.698;37.460;2022-07-23T07:04:33;12.63;;;4.45;;
44026;SDS011;29696;55.698;37.460;2022-07-23T07:07:00;6.70;;;4.57;;
44026;SDS011;29696;55.698;37.460;2022-07-23T07:09:26;10.57;;;5.30;;
44026;SDS011;29696;55.698;37.460;2022-07-23T07:11:53;8.95;;;5.78;;
44026;SDS011;29696;55.698;37.460;2022-07-23T07:14:19;9.10;;;5.45;;
44026;SDS011;29696;55.698;37.460;2022-07-23T07:16:45;9.65;;;6.05;;
44026;SDS011;29696;55.698;37.460;2022-07-23T07:19:12;11.90;;;5.95;;
44026;SDS011;29696;55.698;37.460;2022-07-23T07:21:38;4.88;;;4.25;;
44026;SDS011;29696;55.698;37.460;2022-07-23T07:24:05;11.70;;;5.70;;
44026;SDS011;29696;55.698;37.460;2022-07-23T07:26:32;7.43;;;5.50;;
44026;SDS011;29696;55.698;37.460;2022-07-23T07:28:58;6.78;;;5.95;;
44026;SDS011;29696;55.698;37.460;2022-07-23T07:31:25;10.40;;;5.55;;
44026;SDS011;29696;55.698;37.460;2022-07-23T07:33:51;5.22;;;4.72;;
44026;SDS011;29696;55.698;37.460;2022-07-23T07:36:18;5.55;;;4.75;;
44026;SDS011;29696;55.698;37.460;2022-07-23T07:38:44;11.85;;;5.20;;
44026;SDS011;29696;55.698;37.460;2022-07-23T07:41:11;14.43;;;8.55;;
44026;SDS011;29696;55.698;37.460;2022-07-23T07:43:38;11.52;;;6.43;;
44026;SDS011;29696;55.698;37.460;2022-07-23T07:46:05;5.80;;;5.22;;
44026;SDS011;29696;55.698;37.460;2022-07-23T07:48:36;5.32;;;4.68;;
44026;SDS011;29696;55.698;37.460;2022-07-23T07:51:03;6.28;;;4.70;;
44026;SDS011;29696;55.698;37.460;2022-07-23T07:53:30;5.32;;;4.82;;
44026;SDS011;29696;55.698;37.460;2022-07-23T07:55:57;7.47;;;5.00;;
44026;SDS011;29696;55.698;37.460;2022-07-23T07:58:23;10.35;;;5.70;;
44026;SDS011;29696;55.698;37.460;2022-07-23T08:00:49;6.00;;;5.40;;
44026;SDS011;29696;55.698;37.460;2022-07-23T08:03:17;5.68;;;5.13;;
44026;SDS011;29696;55.698;37.460;2022-07-23T08:05:43;7.22;;;5.10;;
44026;SDS011;29696;55.698;37.460;2022-07-23T08:08:09;5.07;;;4.35;;
44026;SDS011;29696;55.698;37.460;2022-07-23T08:10:40;8.02;;;5.03;;
44026;SDS011;29696;55.698;37.460;2022-07-23T08:13:07;10.18;;;4.85;;
44026;SDS011;29696;55.698;37.460;2022-07-23T08:15:33;5.30;;;4.80;;
44026;SDS011;29696;55.698;37.460;2022-07-23T08:18:00;5.72;;;5.18;;
44026;SDS011;29696;55.698;37.460;2022-07-23T08:20:26;7.57;;;5.03;;
44026;SDS011;29696;55.698;37.460;2022-07-23T08:22:56;5.28;;;4.72;;
44026;SDS011;29696;55.698;37.460;2022-07-23T08:25:28;7.97;;;5.32;;
44026;SDS011;29696;55.698;37.460;2022-07-23T08:28:00;5.45;;;4.95;;
44026;SDS011;29696;55.698;37.460;2022-07-23T08:30:28;6.28;;;5.32;;
44026;SDS011;29696;55.698;37.460;2022-07-23T08:33:00;5.65;;;5.15;;
44026;SDS011;29696;55.698;37.460;2022-07-23T08:35:43;5.25;;;4.75;;
44026;SDS011;29696;55.698;37.460;2022-07-23T08:38:15;6.30;;;5.53;;
44026;SDS011;29696;55.698;37.460;2022-07-23T08:40:45;7.80;;;5.72;;
44026;SDS011;29696;55.698;37.460;2022-07-23T08:43:15;6.22;;;4.45;;
44026;SDS011;29696;55.698;37.460;2022-07-23T08:45:47;5.82;;;5.15;;
44026;SDS011;29696;55.698;37.460;2022-07-23T08:48:16;11.20;;;5.13;;
44026;SDS011;29696;55.698;37.460;2022-07-23T08:51:02;11.10;;;6.13;;
44026;SDS011;29696;55.698;37.460;2022-07-23T08:53:30;9.43;;;5.25;;
44026;SDS011;29696;55.698;37.460;2022-07-23T08:55:59;6.78;;;5.55;;
44026;SDS011;29696;55.698;37.460;2022-07-23T08:58:30;6.93;;;6.28;;
44026;SDS011;29696;55.698;37.460;2022-07-23T09:00:57;8.82;;;6.05;;
44026;SDS011;29696;55.698;37.460;2022-07-23T09:03:28;10.18;;;6.10;;
44026;SDS011;29696;55.698;37.460;2022-07-23T09:05:56;10.88;;;6.03;;
44026;SDS011;29696;55.698;37.460;2022-07-23T09:11:19;6.82;;;5.95;;
44026;SDS011;29696;55.698;37.460;2022-07-23T09:13:46;10.27;;;5.75;;
44026;SDS011;29696;55.698;37.460;2022-07-23T09:16:15;8.38;;;6.60;;
44026;SDS011;29696;55.698;37.460;2022-07-23T09:18:47;8.43;;;5.70;;
44026;SDS011;29696;55.698;37.460;2022-07-23T09:24:09;7.10;;;5.82;;
44026;SDS011;29696;55.698;37.460;2022-07-23T09:29:24;6.90;;;6.22;;
44026;SDS011;29696;55.698;37.460;2022-07-23T09:31:55;8.50;;;6.45;;
44026;SDS011;29696;55.698;37.460;2022-07-23T09:34:23;6.30;;;5.70;;
44026;SDS011;29696;55.698;37.460;2022-07-23T09:37:14;6.55;;;5.95;;
44026;SDS011;29696;55.698;37.460;2022-07-23T09:39:42;8.32;;;6.68;;
44026;SDS011;29696;55.698;37.460;2022-07-23T09:42:27;17.75;;;7.63;;
44026;SDS011;29696;55.698;37.460;2022-07-23T09:44:57;10.88;;;6.85;;
44026;SDS011;29696;55.698;37.460;2022-07-23T09:47:25;8.95;;;6.82;;
44026;SDS011;29696;55.698;37.460;2022-07-23T09:50:11;8.00;;;6.57;;
44026;SDS011;29696;55.698;37.460;2022-07-23T09:52:44;18.50;;;6.88;;
44026;SDS011;29696;55.698;37.460;2022-07-23T09:57:40;6.78;;;5.40;;
44026;SDS011;29696;55.698;37.460;2022-07-23T10:00:10;7.10;;;6.10;;
44026;SDS011;29696;55.698;37.460;2022-07-23T10:02:38;8.73;;;6.85;;
44026;SDS011;29696;55.698;37.460;2022-07-23T10:05:24;9.98;;;6.07;;
44026;SDS011;29696;55.698;37.460;2022-07-23T10:08:11;7.63;;;6.93;;
44026;SDS011;29696;55.698;37.460;2022-07-23T10:11:10;9.43;;;6.22;;
44026;SDS011;29696;55.698;37.460;2022-07-23T10:13:50;7.07;;;6.38;;
44026;SDS011;29696;55.698;37.460;2022-07-23T10:16:37;8.93;;;7.43;;
44026;SDS011;29696;55.698;37.460;2022-07-23T10:19:04;7.13;;;6.43;;
44026;SDS011;29696;55.698;37.460;2022-07-23T10:21:37;9.05;;;6.65;;
44026;SDS011;29696;55.698;37.460;2022-07-23T10:30:40;10.05;;;6.43;;
44026;SDS011;29696;55.698;37.460;2022-07-23T10:33:20;8.20;;;7.40;;
44026;SDS011;29696;55.698;37.460;2022-07-23T10:39:06;11.02;;;7.55;;
44026;SDS011;29696;55.698;37.460;2022-07-23T10:44:09;19.80;;;7.95;;
44026;SDS011;29696;55.698;37.460;2022-07-23T10:46:59;13.27;;;8.43;;
44026;SDS011;29696;55.698;37.460;2022-07-23T10:50:24;6.82;;;6.22;;
44026;SDS011;29696;55.698;37.460;2022-07-23T10:55:53;7.85;;;7.15;;
44026;SDS011;29696;55.698;37.460;2022-07-23T10:58:23;11.45;;;7.25;;
44026;SDS011;29696;55.698;37.460;2022-07-23T11:01:34;6.38;;;5.75;;
44026;SDS011;29696;55.698;37.460;2022-07-23T11:04:02;7.22;;;6.53;;
44026;SDS011;29696;55.698;37.460;2022-07-23T11:09:40;8.05;;;7.25;;
44026;SDS011;29696;55.698;37.460;2022-07-23T11:18:00;7.25;;;6.55;;
44026;SDS011;29696;55.698;37.460;2022-07-23T11:20:26;7.63;;;6.93;;
44026;SDS011;29696;55.698;37.460;2022-07-23T11:22:56;8.43;;;7.63;;
44026;SDS011;29696;55.698;37.460;2022-07-23T11:30:58;9.70;;;8.05;;
44026;SDS011;29696;55.698;37.460;2022-07-23T11:36:08;9.32;;;5.70;;
44026;SDS011;29696;55.698;37.460;2022-07-23T11:38:35;9.75;;;7.15;;
44026;SDS011;29696;55.698;37.460;2022-07-23T11:41:04;9.88;;;6.10;;
44026;SDS011;29696;55.698;37.460;2022-07-23T11:43:31;11.38;;;7.28;;
44026;SDS011;29696;55.698;37.460;2022-07-23T11:45:58;16.23;;;7.70;;
44026;SDS011;29696;55.698;37.460;2022-07-23T11:48:27;8.02;;;6.72;;
44026;SDS011;29696;55.698;37.460;2022-07-23T11:50:55;6.90;;;6.10;;
44026;SDS011;29696;55.698;37.460;2022-07-23T11:53:27;7.50;;;6.80;;
44026;SDS011;29696;55.698;37.460;2022-07-23T11:58:54;8.57;;;6.50;;
44026;SDS011;29696;55.698;37.460;2022-07-23T12:01:21;9.18;;;6.63;;
44026;SDS011;29696;55.698;37.460;2022-07-23T12:03:48;7.90;;;6.75;;
44026;SDS011;29696;55.698;37.460;2022-07-23T12:06:16;14.27;;;7.70;;
44026;SDS011;29696;55.698;37.460;2022-07-23T12:08:42;7.93;;;6.75;;
44026;SDS011;29696;55.698;37.460;2022-07-23T12:11:08;11.80;;;6.72;;
44026;SDS011;29696;55.698;37.460;2022-07-23T12:13:37;10.35;;;7.43;;
44026;SDS011;29696;55.698;37.460;2022-07-23T12:16:04;7.85;;;7.03;;
44026;SDS011;29696;55.698;37.460;2022-07-23T12:18:31;11.32;;;6.28;;
44026;SDS011;29696;55.698;37.460;2022-07-23T12:21:03;7.40;;;6.65;;
44026;SDS011;29696;55.698;37.460;2022-07-23T12:23:31;10.13;;;6.28;;
44026;SDS011;29696;55.698;37.460;2022-07-23T12:26:00;7.25;;;6.55;;
44026;SDS011;29696;55.698;37.460;2022-07-23T12:28:28;10.65;;;6.85;;
44026;SDS011;29696;55.698;37.460;2022-07-23T12:30:59;7.45;;;6.25;;
44026;SDS011;29696;55.698;37.460;2022-07-23T12:33:26;7.38;;;6.65;;
44026;SDS011;29696;55.698;37.460;2022-07-23T12:36:02;6.97;;;6.28;;
44026;SDS011;29696;55.698;37.460;2022-07-23T12:38:37;7.22;;;6.63;;
44026;SDS011;29696;55.698;37.460;2022-07-23T12:41:12;10.00;;;7.07;;
44026;SDS011;29696;55.698;37.460;2022-07-23T12:43:39;9.30;;;6.82;;
44026;SDS011;29696;55.698;37.460;2022-07-23T12:46:17;7.35;;;6.65;;
44026;SDS011;29696;55.698;37.460;2022-07-23T12:51:35;7.60;;;6.90;;
44026;SDS011;29696;55.698;37.460;2022-07-23T12:54:06;7.00;;;6.32;;
44026;SDS011;29696;55.698;37.460;2022-07-23T12:56:38;14.23;;;6.80;;
44026;SDS011;29696;55.698;37.460;2022-07-23T12:59:09;6.53;;;5.93;;
44026;SDS011;29696;55.698;37.460;2022-07-23T13:01:38;10.10;;;6.47;;
44026;SDS011;29696;55.698;37.460;2022-07-23T13:04:24;12.13;;;7.75;;
44026;SDS011;29696;55.698;37.460;2022-07-23T13:06:55;11.65;;;5.60;;
44026;SDS011;29696;55.698;37.460;2022-07-23T13:09:25;7.55;;;6.70;;
44026;SDS011;29696;55.698;37.460;2022-07-23T13:11:53;10.18;;;6.70;;
44026;SDS011;29696;55.698;37.460;2022-07-23T13:14:21;13.35;;;7.20;;
44026;SDS011;29696;55.698;37.460;2022-07-23T13:16:49;7.80;;;6.97;;
44026;SDS011;29696;55.698;37.460;2022-07-23T13:19:16;12.93;;;7.60;;
44026;SDS011;29696;55.698;37.460;2022-07-23T13:21:43;7.70;;;6.40;;
44026;SDS011;29696;55.698;37.460;2022-07-23T13:24:10;12.02;;;6.28;;
44026;SDS011;29696;55.698;37.460;2022-07-23T13:26:38;6.00;;;5.40;;
44026;SDS011;29696;55.698;37.460;2022-07-23T13:29:05;7.43;;;5.93;;
44026;SDS011;29696;55.698;37.460;2022-07-23T13:31:32;8.00;;;6.82;;
44026;SDS011;29696;55.698;37.460;2022-07-23T13:33:58;7.82;;;6.20;;
44026;SDS011;29696;55.698;37.460;2022-07-23T13:36:24;7.20;;;6.43;;
44026;SDS011;29696;55.698;37.460;2022-07-23T13:38:51;6.63;;;6.03;;
44026;SDS011;29696;55.698;37.460;2022-07-23T13:41:17;6.70;;;6.10;;
44026;SDS011;29696;55.698;37.460;2022-07-23T13:43:44;7.78;;;7.00;;
44026;SDS011;29696;55.698;37.460;2022-07-23T13:46:11;7.07;;;6.03;;
44026;SDS011;29696;55.698;37.460;2022-07-23T13:48:37;7.30;;;6.60;;
44026;SDS011;29696;55.698;37.460;2022-07-23T13:51:04;8.50;;;6.28;;
44026;SDS011;29696;55.698;37.460;2022-07-23T13:53:30;12.55;;;6.72;;
44026;SDS011;29696;55.698;37.460;2022-07-23T13:55:57;6.93;;;6.20;;
44026;SDS011;29696;55.698;37.460;2022-07-23T13:58:23;8.48;;;6.38;;
44026;SDS011;29696;55.698;37.460;2022-07-23T14:00:51;9.82;;;6.28;;
44026;SDS011;29696;55.698;37.460;2022-07-23T14:03:19;8.02;;;5.95;;
44026;SDS011;29696;55.698;37.460;2022-07-23T14:05:49;8.20;;;6.05;;
44026;SDS011;29696;55.698;37.460;2022-07-23T14:08:15;7.38;;;6.57;;
44026;SDS011;29696;55.698;37.460;2022-07-23T14:10:42;7.35;;;6.65;;
44026;SDS011;29696;55.698;37.460;2022-07-23T14:13:08;8.18;;;6.13;;
44026;SDS011;29696;55.698;37.460;2022-07-23T14:15:34;6.65;;;6.05;;
44026;SDS011;29696;55.698;37.460;2022-07-23T14:18:00;7.57;;;6.78;;
44026;SDS011;29696;55.698;37.460;2022-07-23T14:20:27;9.25;;;6.80;;
44026;SDS011;29696;55.698;37.460;2022-07-23T14:22:53;8.07;;;7.28;;
44026;SDS011;29696;55.698;37.460;2022-07-23T14:25:21;7.72;;;5.47;;
44026;SDS011;29696;55.698;37.460;2022-07-23T14:27:47;6.03;;;5.43;;
44026;SDS011;29696;55.698;37.460;2022-07-23T14:30:14;7.82;;;6.53;;
44026;SDS011;29696;55.698;37.460;2022-07-23T14:32:40;6.75;;;6.05;;
44026;SDS011;29696;55.698;37.460;2022-07-23T14:35:07;8.02;;;5.45;;
44026;SDS011;29696;55.698;37.460;2022-07-23T14:37:34;10.93;;;7.10;;
44026;SDS011;29696;55.698;37.460;2022-07-23T14:40:00;9.35;;;6.43;;
44026;SDS011;29696;55.698;37.460;2022-07-23T14:42:29;8.93;;;6.32;;
44026;SDS011;29696;55.698;37.460;2022-07-23T14:44:56;9.27;;;6.32;;
44026;SDS011;29696;55.698;37.460;2022-07-23T14:47:22;8.18;;;5.68;;
44026;SDS011;29696;55.698;37.460;2022-07-23T14:49:49;8.85;;;6.35;;
44026;SDS011;29696;55.698;37.460;2022-07-23T14:52:15;7.10;;;6.30;;
44026;SDS011;29696;55.698;37.460;2022-07-23T14:54:42;7.28;;;6.45;;
44026;SDS011;29696;55.698;37.460;2022-07-23T14:57:08;8.98;;;6.65;;
44026;SDS011;29696;55.698;37.460;2022-07-23T14:59:35;8.93;;;5.45;;
44026;SDS011;29696;55.698;37.460;2022-07-23T15:02:01;8.98;;;6.00;;
44026;SDS011;29696;55.698;37.460;2022-07-23T15:04:28;6.10;;;5.32;;
44026;SDS011;29696;55.698;37.460;2022-07-23T15:06:54;6.28;;;5.70;;
44026;SDS011;29696;55.698;37.460;2022-07-23T15:09:20;6.53;;;5.85;;
44026;SDS011;29696;55.698;37.460;2022-07-23T15:11:47;12.48;;;6.95;;
44026;SDS011;29696;55.698;37.460;2022-07-23T15:14:13;11.82;;;5.75;;
44026;SDS011;29696;55.698;37.460;2022-07-23T15:16:40;9.95;;;5.88;;
44026;SDS011;29696;55.698;37.460;2022-07-23T15:19:07;6.60;;;6.00;;
44026;SDS011;29696;55.698;37.460;2022-07-23T15:21:34;11.90;;;7.75;;
44026;SDS011;29696;55.698;37.460;2022-07-23T15:24:00;7.35;;;6.00;;
44026;SDS011;29696;55.698;37.460;2022-07-23T15:26:27;7.28;;;6.22;;
44026;SDS011;29696;55.698;37.460;2022-07-23T15:28:54;5.78;;;5.05;;